createdAt,value
2022-11-07T00:00:07.254Z,84.20
2022-11-07T00:01:07.239Z,84.20
2022-11-07T00:02:07.326Z,84.30
2022-11-07T00:03:07.270Z,84.30
2022-11-07T00:04:07.186Z,84.41
2022-11-07T00:05:07.173Z,84.41
2022-11-07T00:06:07.169Z,84.30
2022-11-07T00:07:07.170Z,84.30
2022-11-07T00:08:07.145Z,84.30
2022-11-07T00:09:07.131Z,84.30
2022-11-07T00:10:07.116Z,84.41
2022-11-07T00:11:07.099Z,84.41
2022-11-07T00:12:07.105Z,84.61
2022-11-07T00:13:07.091Z,84.81
2022-11-07T00:14:07.062Z,84.91
2022-11-07T00:15:07.055Z,85.02
2022-11-07T00:16:07.034Z,85.02
2022-11-07T00:17:07.023Z,84.91
2022-11-07T00:18:07.010Z,85.02
2022-11-07T00:19:07.010Z,85.02
2022-11-07T00:20:07.002Z,85.02
2022-11-07T00:21:06.967Z,85.02
2022-11-07T00:22:06.965Z,85.02
2022-11-07T00:23:06.945Z,85.02
2022-11-07T00:24:06.940Z,85.02
2022-11-07T00:25:06.936Z,85.02
2022-11-07T00:26:06.920Z,85.12
2022-11-07T00:27:06.943Z,85.22
2022-11-07T00:28:06.881Z,85.22
2022-11-07T00:29:06.865Z,85.22
2022-11-07T00:30:06.854Z,85.22
2022-11-07T00:31:06.868Z,85.22
2022-11-07T00:32:06.824Z,85.22
2022-11-07T00:33:06.834Z,85.08
2022-11-07T00:34:06.810Z,85.12
2022-11-07T00:35:06.787Z,85.22
2022-11-07T00:36:06.792Z,85.32
2022-11-07T00:37:06.773Z,85.42
2022-11-07T00:38:06.761Z,85.32
2022-11-07T00:39:06.744Z,85.32
2022-11-07T00:40:06.726Z,84.88
2022-11-07T00:41:06.724Z,84.77
2022-11-07T00:42:06.704Z,84.77
2022-11-07T00:43:06.697Z,84.77
2022-11-07T00:44:06.672Z,84.67
2022-11-07T00:45:06.662Z,84.77
2022-11-07T00:46:06.656Z,84.77
2022-11-07T00:47:06.658Z,84.77
2022-11-07T00:48:06.625Z,84.77
2022-11-07T00:49:06.621Z,84.77
2022-11-07T00:50:06.672Z,84.88
2022-11-07T00:51:06.580Z,84.91
2022-11-07T00:52:06.582Z,85.02
2022-11-07T00:53:06.564Z,84.91
2022-11-07T00:54:06.553Z,84.77
2022-11-07T00:55:06.550Z,84.77
2022-11-07T00:56:06.526Z,84.77
2022-11-07T00:57:06.522Z,84.81
2022-11-07T00:58:09.868Z,85.02
2022-11-07T00:59:06.488Z,85.12
2022-11-07T01:00:06.475Z,85.12
2022-11-07T01:01:06.464Z,85.02
2022-11-07T01:02:06.628Z,85.02
2022-11-07T01:03:06.428Z,85.12
2022-11-07T01:04:06.423Z,85.12
2022-11-07T01:05:06.399Z,85.12
2022-11-07T01:06:06.396Z,85.12
2022-11-07T01:07:06.394Z,85.22
2022-11-07T01:08:06.363Z,85.22
2022-11-07T01:09:06.355Z,85.12
2022-11-07T01:10:06.335Z,85.02
2022-11-07T01:11:06.328Z,85.12
2022-11-07T01:12:06.336Z,85.12
2022-11-07T01:13:06.310Z,85.22
2022-11-07T01:14:06.301Z,85.12
2022-11-07T01:15:06.278Z,85.02
2022-11-07T01:16:06.258Z,85.02
2022-11-07T01:17:06.242Z,85.02
2022-11-07T01:18:06.265Z,85.02
2022-11-07T01:19:06.236Z,85.02
2022-11-07T01:20:06.230Z,84.98
2022-11-07T01:21:06.198Z,85.02
2022-11-07T01:22:06.184Z,85.32
2022-11-07T01:23:06.168Z,85.42
2022-11-07T01:24:06.154Z,85.42
2022-11-07T01:25:06.153Z,85.53
2022-11-07T01:26:06.135Z,85.63
2022-11-07T01:27:06.129Z,85.53
2022-11-07T01:28:06.101Z,85.63
2022-11-07T01:29:06.094Z,85.83
2022-11-07T01:30:06.082Z,85.94
2022-11-07T01:31:06.072Z,85.83
2022-11-07T01:32:06.055Z,85.94
2022-11-07T01:33:06.041Z,86.04
2022-11-07T01:34:06.040Z,85.83
2022-11-07T01:35:06.031Z,85.83
2022-11-07T01:36:06.417Z,85.63
2022-11-07T01:37:06.008Z,85.73
2022-11-07T01:38:05.982Z,85.73
2022-11-07T01:39:05.964Z,85.83
2022-11-07T01:40:05.947Z,85.83
2022-11-07T01:41:05.940Z,85.83
2022-11-07T01:42:05.950Z,85.73
2022-11-07T01:43:05.916Z,85.94
2022-11-07T01:44:05.894Z,85.83
2022-11-07T01:45:05.887Z,85.94
2022-11-07T01:46:05.869Z,86.04
2022-11-07T01:47:05.865Z,86.14
2022-11-07T01:48:05.854Z,86.29
2022-11-07T01:49:05.869Z,86.38
2022-11-07T01:50:05.818Z,86.59
2022-11-07T01:51:05.811Z,86.49
2022-11-07T01:52:05.827Z,86.49
2022-11-07T01:53:05.803Z,86.49
2022-11-07T01:54:05.766Z,86.49
2022-11-07T01:55:05.777Z,86.59
2022-11-07T01:56:05.760Z,86.69
2022-11-07T01:57:05.745Z,86.69
2022-11-07T01:58:05.719Z,86.69
2022-11-07T01:59:05.700Z,86.59
2022-11-07T02:00:05.692Z,86.59
2022-11-07T02:01:05.699Z,86.35
2022-11-07T02:02:05.861Z,86.38
2022-11-07T02:03:05.738Z,86.38
2022-11-07T02:04:05.653Z,86.38
2022-11-07T02:05:05.624Z,86.38
2022-11-07T02:06:05.613Z,86.38
2022-11-07T02:07:05.620Z,86.49
2022-11-07T02:08:05.588Z,86.49
2022-11-07T02:09:05.586Z,86.49
2022-11-07T02:10:05.559Z,86.49
2022-11-07T02:11:05.555Z,86.49
2022-11-07T02:12:05.550Z,86.59
2022-11-07T02:13:05.540Z,86.49
2022-11-07T02:14:05.531Z,86.59
2022-11-07T02:15:05.504Z,86.59
2022-11-07T02:16:05.495Z,86.49
2022-11-07T02:17:05.483Z,86.59
2022-11-07T02:18:05.457Z,86.79
2022-11-07T02:19:05.467Z,87.10
2022-11-07T02:20:05.435Z,87.00
2022-11-07T02:21:05.422Z,86.90
2022-11-07T02:22:05.421Z,86.90
2022-11-07T02:23:05.398Z,87.00
2022-11-07T02:24:05.385Z,87.10
2022-11-07T02:25:05.383Z,87.10
2022-11-07T02:26:05.365Z,87.20
2022-11-07T02:27:05.358Z,87.30
2022-11-07T02:28:05.327Z,87.30
2022-11-07T02:29:05.323Z,87.20
2022-11-07T02:30:05.314Z,87.20
2022-11-07T02:31:05.305Z,87.30
2022-11-07T02:32:05.289Z,87.51
2022-11-07T02:33:05.270Z,87.41
2022-11-07T02:34:05.263Z,87.41
2022-11-07T02:35:05.250Z,87.41
2022-11-07T02:36:05.237Z,87.41
2022-11-07T02:37:05.233Z,87.51
2022-11-07T02:38:05.225Z,87.51
2022-11-07T02:39:05.201Z,87.51
2022-11-07T02:40:05.193Z,87.41
2022-11-07T02:41:05.165Z,87.30
2022-11-07T02:42:05.183Z,87.51
2022-11-07T02:43:05.160Z,87.51
2022-11-07T02:44:05.125Z,87.51
2022-11-07T02:45:05.176Z,87.51
2022-11-07T02:46:05.105Z,87.41
2022-11-07T02:47:05.095Z,87.41
2022-11-07T02:48:05.079Z,87.51
2022-11-07T02:49:05.086Z,87.51
2022-11-07T02:50:05.057Z,87.41
2022-11-07T02:51:05.036Z,87.51
2022-11-07T02:52:05.031Z,87.61
2022-11-07T02:53:05.048Z,87.51
2022-11-07T02:54:05.001Z,87.41
2022-11-07T02:55:04.994Z,87.20
2022-11-07T02:56:04.974Z,87.20
2022-11-07T02:57:04.962Z,87.10
2022-11-07T02:58:04.957Z,87.00
2022-11-07T02:59:04.933Z,87.00
2022-11-07T03:00:04.944Z,86.90
2022-11-07T03:01:04.929Z,86.65
2022-11-07T03:02:05.013Z,86.44
2022-11-07T03:03:04.894Z,86.44
2022-11-07T03:04:04.877Z,86.44
2022-11-07T03:05:04.978Z,86.35
2022-11-07T03:06:04.849Z,86.24
2022-11-07T03:07:04.851Z,86.24
2022-11-07T03:08:04.826Z,86.24
2022-11-07T03:09:04.822Z,86.14
2022-11-07T03:10:04.797Z,86.04
2022-11-07T03:11:04.788Z,85.83
2022-11-07T03:12:04.769Z,85.83
2022-11-07T03:13:04.771Z,85.83
2022-11-07T03:14:04.748Z,85.83
2022-11-07T03:15:04.760Z,85.94
2022-11-07T03:16:04.727Z,85.83
2022-11-07T03:17:04.707Z,85.94
2022-11-07T03:18:04.695Z,85.83
2022-11-07T03:19:04.697Z,85.69
2022-11-07T03:20:04.673Z,85.83
2022-11-07T03:21:04.666Z,85.83
2022-11-07T03:22:04.752Z,85.69
2022-11-07T03:23:04.635Z,85.83
2022-11-07T03:24:04.619Z,85.79
2022-11-07T03:25:04.618Z,85.83
2022-11-07T03:26:04.598Z,85.94
2022-11-07T03:27:04.584Z,86.04
2022-11-07T03:28:04.574Z,86.04
2022-11-07T03:29:04.556Z,86.04
2022-11-07T03:30:04.548Z,86.04
2022-11-07T03:31:04.551Z,86.04
2022-11-07T03:32:04.514Z,86.04
2022-11-07T03:33:04.506Z,86.14
2022-11-07T03:34:04.491Z,85.94
2022-11-07T03:35:04.480Z,85.94
2022-11-07T03:36:04.491Z,86.04
2022-11-07T03:37:04.462Z,86.14
2022-11-07T03:38:04.444Z,86.14
2022-11-07T03:39:04.424Z,86.24
2022-11-07T03:40:04.412Z,86.24
2022-11-07T03:41:04.402Z,86.14
2022-11-07T03:42:04.392Z,86.04
2022-11-07T03:43:04.388Z,86.04
2022-11-07T03:44:04.359Z,86.04
2022-11-07T03:45:04.350Z,86.24
2022-11-07T03:46:04.330Z,86.35
2022-11-07T03:47:04.325Z,86.44
2022-11-07T03:48:04.308Z,86.44
2022-11-07T03:49:04.315Z,86.55
2022-11-07T03:50:04.286Z,86.55
2022-11-07T03:51:04.268Z,86.44
2022-11-07T03:52:04.268Z,86.35
2022-11-07T03:53:04.248Z,86.14
2022-11-07T03:54:04.227Z,86.04
2022-11-07T03:55:04.233Z,86.14
2022-11-07T03:56:04.204Z,86.35
2022-11-07T03:57:04.197Z,86.24
2022-11-07T03:58:04.184Z,86.24
2022-11-07T03:59:04.170Z,86.14
2022-11-07T04:00:04.153Z,86.24
2022-11-07T04:01:04.147Z,86.24
2022-11-07T04:02:04.285Z,86.14
2022-11-07T04:03:04.195Z,85.94
2022-11-07T04:04:04.099Z,86.04
2022-11-07T04:05:04.095Z,86.04
2022-11-07T04:06:04.077Z,85.94
2022-11-07T04:07:04.073Z,85.94
2022-11-07T04:08:04.063Z,86.04
2022-11-07T04:09:04.048Z,86.04
2022-11-07T04:10:04.027Z,86.14
2022-11-07T04:11:04.018Z,86.14
2022-11-07T04:12:04.007Z,86.04
2022-11-07T04:13:03.993Z,85.94
2022-11-07T04:14:03.987Z,85.94
2022-11-07T04:15:03.976Z,85.69
2022-11-07T04:16:03.948Z,85.63
2022-11-07T04:17:03.933Z,85.83
2022-11-07T04:18:03.930Z,85.79
2022-11-07T04:19:03.920Z,85.94
2022-11-07T04:20:03.894Z,86.04
2022-11-07T04:21:03.883Z,86.14
2022-11-07T04:22:03.871Z,86.04
2022-11-07T04:23:03.861Z,86.04
2022-11-07T04:24:03.845Z,86.14
2022-11-07T04:25:03.840Z,86.14
2022-11-07T04:26:03.822Z,86.10
2022-11-07T04:27:03.800Z,86.04
2022-11-07T04:28:03.819Z,86.24
2022-11-07T04:29:03.780Z,86.24
2022-11-07T04:30:03.776Z,86.14
2022-11-07T04:31:03.785Z,86.24
2022-11-07T04:32:03.737Z,85.89
2022-11-07T04:33:03.748Z,85.89
2022-11-07T04:34:03.714Z,86.04
2022-11-07T04:35:03.707Z,86.04
2022-11-07T04:36:03.690Z,86.04
2022-11-07T04:37:03.692Z,86.14
2022-11-07T04:38:03.679Z,86.14
2022-11-07T04:39:03.652Z,86.14
2022-11-07T04:40:03.643Z,85.79
2022-11-07T04:41:03.623Z,85.83
2022-11-07T04:42:03.655Z,85.94
2022-11-07T04:43:03.610Z,86.14
2022-11-07T04:44:03.589Z,86.24
2022-11-07T04:45:03.576Z,86.35
2022-11-07T04:46:03.557Z,86.24
2022-11-07T04:47:03.554Z,86.14
2022-11-07T04:48:03.541Z,86.00
2022-11-07T04:49:03.530Z,86.04
2022-11-07T04:50:03.514Z,86.04
2022-11-07T04:51:03.500Z,85.83
2022-11-07T04:52:03.489Z,85.79
2022-11-07T04:53:03.471Z,85.83
2022-11-07T04:54:03.462Z,86.04
2022-11-07T04:55:03.463Z,86.04
2022-11-07T04:56:03.439Z,85.94
2022-11-07T04:57:03.427Z,85.94
2022-11-07T04:58:03.405Z,85.73
2022-11-07T04:59:03.406Z,85.83
2022-11-07T05:00:03.387Z,85.94
2022-11-07T05:01:03.388Z,85.83
2022-11-07T05:02:03.515Z,85.83
2022-11-07T05:03:03.422Z,85.94
2022-11-07T05:04:03.327Z,85.73
2022-11-07T05:05:03.342Z,85.73
2022-11-07T05:06:03.305Z,85.59
2022-11-07T05:07:03.303Z,85.49
2022-11-07T05:08:03.281Z,85.63
2022-11-07T05:09:03.277Z,85.49
2022-11-07T05:10:04.638Z,85.38
2022-11-07T05:11:03.240Z,85.28
2022-11-07T05:12:03.234Z,85.53
2022-11-07T05:13:03.226Z,85.53
2022-11-07T05:14:03.207Z,85.49
2022-11-07T05:15:03.194Z,85.53
2022-11-07T05:16:03.180Z,85.38
2022-11-07T05:17:03.171Z,85.28
2022-11-07T05:18:03.162Z,85.38
2022-11-07T05:19:03.148Z,85.18
2022-11-07T05:20:03.122Z,85.28
2022-11-07T05:21:03.119Z,85.32
2022-11-07T05:22:03.105Z,85.53
2022-11-07T05:23:03.080Z,85.53
2022-11-07T05:24:03.072Z,85.53
2022-11-07T05:25:03.071Z,85.73
2022-11-07T05:26:03.049Z,85.63
2022-11-07T05:27:03.050Z,85.73
2022-11-07T05:28:03.016Z,85.63
2022-11-07T05:29:03.010Z,85.38
2022-11-07T05:30:02.998Z,85.42
2022-11-07T05:31:02.988Z,85.28
2022-11-07T05:32:02.983Z,84.98
2022-11-07T05:33:02.979Z,84.77
2022-11-07T05:34:02.944Z,84.77
2022-11-07T05:35:02.927Z,84.88
2022-11-07T05:36:02.921Z,84.67
2022-11-07T05:37:02.922Z,84.67
2022-11-07T05:38:02.913Z,84.88
2022-11-07T05:39:02.888Z,84.98
2022-11-07T05:40:02.868Z,84.98
2022-11-07T05:41:02.864Z,84.67
2022-11-07T05:42:02.903Z,84.47
2022-11-07T05:43:02.845Z,84.47
2022-11-07T05:44:02.813Z,84.36
2022-11-07T05:45:02.814Z,84.67
2022-11-07T05:46:02.829Z,84.47
2022-11-07T05:47:02.774Z,84.26
2022-11-07T05:48:02.774Z,84.47
2022-11-07T05:49:02.771Z,84.57
2022-11-07T05:50:02.723Z,84.67
2022-11-07T05:51:02.724Z,84.67
2022-11-07T05:52:02.714Z,84.47
2022-11-07T05:53:02.799Z,84.47
2022-11-07T05:54:02.685Z,84.47
2022-11-07T05:55:02.651Z,84.47
2022-11-07T05:56:02.620Z,84.47
2022-11-07T05:57:02.623Z,84.47
2022-11-07T05:58:06.781Z,84.36
2022-11-07T05:59:02.634Z,84.36
2022-11-07T06:00:02.571Z,84.47
2022-11-07T06:01:02.553Z,84.36
2022-11-07T06:02:02.714Z,84.01
2022-11-07T06:03:02.568Z,84.06
2022-11-07T06:04:02.499Z,84.06
2022-11-07T06:05:02.504Z,84.16
2022-11-07T06:06:02.494Z,84.26
2022-11-07T06:07:02.478Z,84.16
2022-11-07T06:08:02.465Z,84.06
2022-11-07T06:09:02.441Z,84.06
2022-11-07T06:10:02.423Z,83.95
2022-11-07T06:11:02.437Z,83.95
2022-11-07T06:12:02.414Z,83.85
2022-11-07T06:13:02.393Z,83.85
2022-11-07T06:14:02.375Z,83.85
2022-11-07T06:15:02.387Z,83.81
2022-11-07T06:16:02.347Z,83.61
2022-11-07T06:17:02.355Z,83.61
2022-11-07T06:18:02.329Z,83.61
2022-11-07T06:19:02.316Z,83.85
2022-11-07T06:20:02.296Z,83.81
2022-11-07T06:21:02.299Z,83.95
2022-11-07T06:22:02.269Z,83.95
2022-11-07T06:23:02.268Z,83.71
2022-11-07T06:24:03.372Z,83.71
2022-11-07T06:25:02.256Z,83.71
2022-11-07T06:26:02.226Z,83.61
2022-11-07T06:27:02.204Z,83.51
2022-11-07T06:28:02.206Z,83.20
2022-11-07T06:29:02.193Z,83.10
2022-11-07T06:30:02.206Z,83.10
2022-11-07T06:31:02.180Z,82.79
2022-11-07T06:32:02.156Z,82.45
2022-11-07T06:33:02.133Z,82.45
2022-11-07T06:34:02.134Z,82.24
2022-11-07T06:35:02.119Z,82.35
2022-11-07T06:36:02.090Z,82.45
2022-11-07T06:37:03.485Z,82.65
2022-11-07T06:38:02.063Z,82.45
2022-11-07T06:39:02.050Z,82.24
2022-11-07T06:40:02.052Z,82.24
2022-11-07T06:41:02.026Z,82.24
2022-11-07T06:42:02.027Z,82.24
2022-11-07T06:43:02.020Z,82.24
2022-11-07T06:44:01.991Z,82.04
2022-11-07T06:45:01.976Z,82.04
2022-11-07T06:46:01.968Z,81.90
2022-11-07T06:47:01.960Z,81.80
2022-11-07T06:48:01.941Z,81.80
2022-11-07T06:49:01.928Z,81.70
2022-11-07T06:50:02.003Z,81.70
2022-11-07T06:51:01.920Z,81.80
2022-11-07T06:52:01.890Z,81.90
2022-11-07T06:53:01.897Z,81.80
2022-11-07T06:54:01.861Z,81.90
2022-11-07T06:55:01.857Z,81.90
2022-11-07T06:56:01.845Z,81.80
2022-11-07T06:57:01.822Z,81.49
2022-11-07T06:58:01.889Z,81.49
2022-11-07T06:59:01.794Z,81.29
2022-11-07T07:00:01.818Z,81.25
2022-11-07T07:01:01.916Z,81.25
2022-11-07T07:02:01.795Z,81.04
2022-11-07T07:03:01.871Z,80.94
2022-11-07T07:04:01.737Z,80.84
2022-11-07T07:05:01.765Z,80.74
2022-11-07T07:06:01.795Z,80.74
2022-11-07T07:07:01.720Z,80.74
2022-11-07T07:08:01.681Z,80.74
2022-11-07T07:09:01.673Z,80.84
2022-11-07T07:10:01.719Z,80.84
2022-11-07T07:11:01.670Z,80.94
2022-11-07T07:12:01.632Z,81.15
2022-11-07T07:13:01.655Z,81.25
2022-11-07T07:14:02.632Z,81.15
2022-11-07T07:15:01.597Z,81.04
2022-11-07T07:16:01.596Z,81.04
2022-11-07T07:17:01.567Z,81.01
2022-11-07T07:18:01.569Z,81.04
2022-11-07T07:19:01.556Z,81.04
2022-11-07T07:20:01.534Z,81.04
2022-11-07T07:21:01.548Z,81.04
2022-11-07T07:22:01.517Z,80.80
2022-11-07T07:23:05.522Z,80.84
2022-11-07T07:24:01.487Z,81.04
2022-11-07T07:25:01.518Z,80.80
2022-11-07T07:26:01.462Z,80.70
2022-11-07T07:27:01.438Z,80.50
2022-11-07T07:28:01.427Z,80.70
2022-11-07T07:29:01.418Z,80.80
2022-11-07T07:30:01.436Z,80.70
2022-11-07T07:31:01.410Z,80.40
2022-11-07T07:32:01.371Z,80.29
2022-11-07T07:33:01.384Z,80.40
2022-11-07T07:34:01.382Z,80.29
2022-11-07T07:35:01.333Z,80.29
2022-11-07T07:36:01.327Z,80.29
2022-11-07T07:37:01.369Z,79.85
2022-11-07T07:38:01.300Z,79.75
2022-11-07T07:39:01.279Z,79.75
2022-11-07T07:40:01.279Z,79.75
2022-11-07T07:41:01.269Z,79.85
2022-11-07T07:42:01.245Z,79.85
2022-11-07T07:43:01.243Z,79.75
2022-11-07T07:44:01.240Z,79.75
2022-11-07T07:45:01.256Z,79.64
2022-11-07T07:46:01.196Z,79.64
2022-11-07T07:47:01.201Z,79.64
2022-11-07T07:48:12.267Z,79.64
2022-11-07T07:49:01.158Z,79.75
2022-11-07T07:50:01.159Z,79.75
2022-11-07T07:51:01.140Z,79.75
2022-11-07T07:52:01.164Z,79.75
2022-11-07T07:53:06.182Z,79.64
2022-11-07T07:54:01.110Z,79.54
2022-11-07T07:55:01.095Z,79.54
2022-11-07T07:56:01.071Z,79.64
2022-11-07T07:57:01.069Z,79.54
2022-11-07T07:58:01.046Z,79.54
2022-11-07T07:59:01.063Z,79.54
2022-11-07T08:00:01.040Z,79.54
2022-11-07T08:01:01.123Z,79.34
2022-11-07T08:02:01.129Z,79.34
2022-11-07T08:03:00.986Z,79.24
2022-11-07T08:04:02.578Z,79.34
2022-11-07T08:05:00.972Z,79.34
2022-11-07T08:07:28.555Z,79.24
2022-11-07T08:08:33.870Z,79.10
2022-11-07T08:09:29.471Z,79.10
2022-11-07T08:10:44.956Z,79.10
2022-11-07T08:11:29.445Z,79.34
2022-11-07T08:12:29.446Z,79.20
2022-11-07T08:13:29.420Z,79.00
2022-11-07T08:14:29.399Z,79.00
2022-11-07T08:15:29.397Z,79.00
2022-11-07T08:16:29.380Z,79.20
2022-11-07T08:17:29.377Z,79.20
2022-11-07T08:18:29.385Z,79.30
2022-11-07T08:19:29.335Z,79.20
2022-11-07T08:20:29.334Z,79.30
2022-11-07T08:21:29.315Z,79.41
2022-11-07T08:22:29.313Z,79.50
2022-11-07T08:23:29.291Z,79.50
2022-11-07T08:24:29.340Z,79.61
2022-11-07T08:25:29.265Z,79.50
2022-11-07T08:26:29.284Z,79.37
2022-11-07T08:27:29.232Z,79.61
2022-11-07T08:28:29.240Z,79.71
2022-11-07T08:29:29.219Z,79.71
2022-11-07T08:30:29.237Z,79.57
2022-11-07T08:31:29.214Z,79.57
2022-11-07T08:32:29.213Z,79.68
2022-11-07T08:33:29.231Z,79.77
2022-11-07T08:34:29.148Z,79.81
2022-11-07T08:35:29.148Z,79.88
2022-11-07T08:36:29.172Z,80.02
2022-11-07T08:37:29.112Z,80.08
2022-11-07T08:38:29.095Z,80.18
2022-11-07T08:39:29.095Z,80.08
2022-11-07T08:40:29.084Z,80.29
2022-11-07T08:41:29.092Z,80.29
2022-11-07T08:42:29.086Z,80.29
2022-11-07T08:43:29.087Z,80.38
2022-11-07T08:44:29.036Z,80.38
2022-11-07T08:45:29.032Z,80.49
2022-11-07T08:46:29.028Z,80.49
2022-11-07T08:47:28.996Z,80.59
2022-11-07T08:48:29.003Z,80.49
2022-11-07T08:49:28.982Z,80.49
2022-11-07T08:50:28.944Z,80.59
2022-11-07T08:51:28.970Z,80.49
2022-11-07T08:52:28.929Z,80.38
2022-11-07T08:53:28.921Z,80.49
2022-11-07T08:54:28.938Z,80.59
2022-11-07T08:55:28.895Z,80.59
2022-11-07T08:56:28.878Z,80.59
2022-11-07T08:57:28.854Z,80.69
2022-11-07T08:58:30.409Z,80.79
2022-11-07T08:59:28.837Z,80.79
2022-11-07T09:00:28.857Z,80.69
2022-11-07T09:01:29.061Z,80.69
2022-11-07T09:03:47.470Z,80.69
2022-11-07T09:04:28.860Z,80.99
2022-11-07T09:05:28.766Z,80.90
2022-11-07T09:06:28.773Z,80.90
2022-11-07T09:07:28.738Z,80.99
2022-11-07T09:08:28.718Z,80.99
2022-11-07T09:09:28.705Z,80.99
2022-11-07T09:10:28.698Z,80.99
2022-11-07T09:11:28.732Z,81.10
2022-11-07T09:12:28.707Z,80.99
2022-11-07T09:13:28.654Z,80.85
2022-11-07T09:14:28.644Z,80.85
2022-11-07T09:15:28.650Z,80.85
2022-11-07T09:16:28.633Z,80.99
2022-11-07T09:17:28.627Z,81.16
2022-11-07T09:18:28.624Z,81.06
2022-11-07T09:19:28.604Z,80.96
2022-11-07T09:20:28.566Z,80.85
2022-11-07T09:21:28.559Z,80.96
2022-11-07T09:22:28.567Z,81.16
2022-11-07T09:23:28.546Z,80.85
2022-11-07T09:24:28.553Z,80.85
2022-11-07T09:25:28.547Z,80.85
2022-11-07T09:26:28.495Z,80.96
2022-11-07T09:27:28.540Z,81.06
2022-11-07T09:28:28.484Z,81.06
2022-11-07T09:29:28.488Z,81.06
2022-11-07T09:30:28.485Z,80.85
2022-11-07T09:31:28.487Z,80.85
2022-11-07T09:32:44.278Z,80.85
2022-11-07T09:33:28.414Z,80.62
2022-11-07T09:34:28.383Z,80.85
2022-11-07T09:35:28.376Z,80.96
2022-11-07T09:36:28.394Z,81.02
2022-11-07T09:37:28.347Z,80.72
2022-11-07T09:38:28.349Z,80.62
2022-11-07T09:39:28.338Z,80.41
2022-11-07T09:40:28.314Z,80.21
2022-11-07T09:41:28.299Z,80.51
2022-11-07T09:42:28.335Z,80.41
2022-11-07T09:43:28.274Z,80.62
2022-11-07T09:44:32.395Z,80.41
2022-11-07T09:45:28.276Z,80.41
2022-11-07T09:46:28.256Z,80.41
2022-11-07T09:47:28.264Z,80.51
2022-11-07T09:48:28.266Z,80.51
2022-11-07T09:49:28.223Z,80.58
2022-11-07T09:50:28.195Z,80.62
2022-11-07T09:51:28.218Z,80.62
2022-11-07T09:52:28.176Z,80.82
2022-11-07T09:53:28.144Z,80.92
2022-11-07T09:54:28.195Z,80.92
2022-11-07T09:55:28.139Z,81.02
2022-11-07T09:56:28.146Z,80.92
2022-11-07T09:57:28.104Z,81.02
2022-11-07T09:58:28.103Z,81.02
2022-11-07T09:59:28.076Z,81.23
2022-11-07T10:00:28.085Z,81.23
2022-11-07T10:01:28.991Z,81.23
2022-11-07T10:02:28.091Z,81.33
2022-11-07T10:03:28.054Z,81.43
2022-11-07T10:04:28.060Z,81.63
2022-11-07T10:05:28.085Z,81.63
2022-11-07T10:06:28.056Z,81.73
2022-11-07T10:07:28.003Z,81.84
2022-11-07T10:08:27.969Z,81.84
2022-11-07T10:09:27.960Z,82.14
2022-11-07T10:10:28.007Z,82.99
2022-11-07T10:11:27.916Z,83.70
2022-11-07T10:12:27.934Z,84.56
2022-11-07T10:13:27.904Z,85.47
2022-11-07T10:14:27.897Z,86.19
2022-11-07T10:15:27.876Z,87.04
2022-11-07T10:16:27.863Z,87.65
2022-11-07T10:17:27.869Z,88.87
2022-11-07T10:18:27.844Z,90.44
2022-11-07T10:19:27.822Z,91.50
2022-11-07T10:20:27.819Z,92.63
2022-11-07T10:21:43.043Z,93.74
2022-11-07T10:22:27.790Z,94.30
2022-11-07T10:23:27.767Z,95.21
2022-11-07T10:24:27.780Z,95.83
2022-11-07T10:25:27.755Z,96.28
2022-11-07T10:26:27.736Z,96.69
2022-11-07T10:27:27.714Z,97.30
2022-11-07T10:28:27.724Z,97.61
2022-11-07T10:29:27.700Z,97.71
2022-11-07T10:30:27.698Z,97.50
2022-11-07T10:31:27.679Z,97.40
2022-11-07T10:32:27.659Z,97.61
2022-11-07T10:33:27.646Z,97.50
2022-11-07T10:34:27.636Z,97.50
2022-11-07T10:35:27.629Z,97.81
2022-11-07T10:36:27.602Z,98.02
2022-11-07T10:37:27.619Z,98.11
2022-11-07T10:38:27.580Z,98.43
2022-11-07T10:39:27.566Z,98.52
2022-11-07T10:40:27.558Z,98.63
2022-11-07T10:41:27.575Z,98.73
2022-11-07T10:42:27.525Z,99.04
2022-11-07T10:43:27.508Z,98.93
2022-11-07T10:44:27.510Z,98.93
2022-11-07T10:45:27.493Z,99.14
2022-11-07T10:46:27.472Z,98.93
2022-11-07T10:47:29.954Z,98.83
2022-11-07T10:48:28.230Z,98.52
2022-11-07T10:49:27.498Z,98.52
2022-11-07T10:50:27.421Z,98.43
2022-11-07T10:51:27.415Z,98.68
2022-11-07T10:52:27.397Z,98.73
2022-11-07T10:53:27.403Z,98.89
2022-11-07T10:54:27.400Z,99.14
2022-11-07T10:55:27.378Z,99.44
2022-11-07T10:56:27.364Z,99.65
2022-11-07T10:57:27.378Z,99.75
2022-11-07T10:58:27.346Z,99.85
2022-11-07T10:59:32.952Z,99.75
2022-11-07T11:00:27.334Z,99.99
2022-11-07T11:01:27.510Z,99.99
2022-11-07T11:02:27.373Z,99.80
2022-11-07T11:03:41.950Z,99.54
2022-11-07T11:04:27.262Z,99.50
2022-11-07T11:05:27.319Z,99.29
2022-11-07T11:06:27.225Z,99.29
2022-11-07T11:07:28.528Z,99.29
2022-11-07T11:08:27.230Z,98.68
2022-11-07T11:09:27.362Z,98.79
2022-11-07T11:10:27.201Z,98.58
2022-11-07T11:11:27.186Z,98.38
2022-11-07T11:12:27.151Z,98.54
2022-11-07T11:13:27.171Z,98.33
2022-11-07T11:14:27.165Z,98.64
2022-11-07T11:15:30.126Z,98.23
2022-11-07T11:16:27.147Z,98.02
2022-11-07T11:17:27.214Z,97.82
2022-11-07T11:18:27.152Z,97.52
2022-11-07T11:19:27.062Z,97.82
2022-11-07T11:20:27.069Z,97.82
2022-11-07T11:21:27.061Z,97.52
2022-11-07T11:22:27.033Z,97.41
2022-11-07T11:23:27.053Z,97.31
2022-11-07T11:24:27.032Z,97.11
2022-11-07T11:25:26.986Z,96.70
2022-11-07T11:26:27.025Z,96.86
2022-11-07T11:27:26.961Z,96.80
2022-11-07T11:28:26.949Z,96.76
2022-11-07T11:29:26.988Z,96.55
2022-11-07T11:30:26.948Z,96.35
2022-11-07T11:31:26.907Z,96.25
2022-11-07T11:32:26.934Z,96.45
2022-11-07T11:33:26.915Z,96.45
2022-11-07T11:34:26.918Z,96.35
2022-11-07T11:35:26.890Z,95.53
2022-11-07T11:36:26.845Z,95.43
2022-11-07T11:37:26.864Z,94.98
2022-11-07T11:38:26.828Z,95.08
2022-11-07T11:39:26.813Z,94.37
2022-11-07T11:40:26.797Z,94.43
2022-11-07T11:41:26.808Z,94.17
2022-11-07T11:42:26.766Z,94.23
2022-11-07T11:43:26.759Z,93.41
2022-11-07T11:44:26.743Z,93.31
2022-11-07T11:45:28.786Z,93.10
2022-11-07T11:46:26.733Z,92.45
2022-11-07T11:47:29.156Z,92.04
2022-11-07T11:48:26.714Z,91.94
2022-11-07T11:49:26.776Z,92.25
2022-11-07T11:50:26.683Z,92.04
2022-11-07T11:51:26.663Z,90.72
2022-11-07T11:52:26.654Z,90.72
2022-11-07T11:53:26.680Z,91.33
2022-11-07T11:54:26.629Z,91.03
2022-11-07T11:55:26.609Z,90.92
2022-11-07T11:56:26.629Z,90.42
2022-11-07T11:57:26.588Z,90.68
2022-11-07T11:58:26.573Z,90.27
2022-11-07T11:59:26.575Z,89.66
2022-11-07T12:00:26.566Z,89.66
2022-11-07T12:02:26.574Z,89.36
2022-11-07T12:03:26.521Z,89.87
2022-11-07T12:04:26.509Z,89.76
2022-11-07T12:05:26.502Z,89.87
2022-11-07T12:06:26.473Z,89.26
2022-11-07T12:07:26.456Z,89.56
2022-11-07T12:08:26.471Z,89.56
2022-11-07T12:09:26.677Z,88.91
2022-11-07T12:10:26.444Z,88.81
2022-11-07T12:11:26.423Z,88.54
2022-11-07T12:12:26.389Z,88.81
2022-11-07T12:13:26.391Z,88.50
2022-11-07T12:14:26.379Z,88.30
2022-11-07T12:15:26.379Z,88.71
2022-11-07T12:16:26.356Z,88.40
2022-11-07T12:17:26.349Z,88.30
2022-11-07T12:18:26.320Z,87.79
2022-11-07T12:19:26.303Z,87.59
2022-11-07T12:20:26.289Z,87.63
2022-11-07T12:21:26.273Z,87.49
2022-11-07T12:22:26.309Z,87.59
2022-11-07T12:23:26.268Z,87.79
2022-11-07T12:24:26.253Z,87.89
2022-11-07T12:25:26.230Z,87.59
2022-11-07T12:26:26.233Z,87.59
2022-11-07T12:27:27.299Z,87.29
2022-11-07T12:28:26.200Z,87.18
2022-11-07T12:29:26.199Z,87.29
2022-11-07T12:30:26.168Z,86.88
2022-11-07T12:31:26.145Z,86.22
2022-11-07T12:32:26.137Z,86.43
2022-11-07T12:33:26.292Z,85.72
2022-11-07T12:34:26.115Z,85.41
2022-11-07T12:35:26.120Z,85.52
2022-11-07T12:36:26.124Z,85.58
2022-11-07T12:37:26.075Z,85.07
2022-11-07T12:38:26.076Z,84.66
2022-11-07T12:39:26.051Z,84.72
2022-11-07T12:40:26.111Z,84.01
2022-11-07T12:41:26.045Z,83.81
2022-11-07T12:42:26.021Z,83.45
2022-11-07T12:43:26.004Z,83.51
2022-11-07T12:44:25.981Z,83.20
2022-11-07T12:45:25.965Z,83.71
2022-11-07T12:46:25.973Z,83.51
2022-11-07T12:47:25.997Z,83.31
2022-11-07T12:48:25.939Z,83.10
2022-11-07T12:49:25.948Z,83.61
2022-11-07T12:50:25.912Z,82.90
2022-11-07T12:51:25.971Z,83.51
2022-11-07T12:52:25.887Z,82.76
2022-11-07T12:53:25.898Z,82.86
2022-11-07T12:54:25.858Z,82.56
2022-11-07T12:55:25.840Z,82.56